createdAt,value
2022-12-28T00:01:31.906Z,5.00
2022-12-28T00:04:00.728Z,5.00
2022-12-28T00:06:28.131Z,5.00
2022-12-28T00:08:58.155Z,5.00
2022-12-28T00:11:31.141Z,5.00
2022-12-28T00:14:02.118Z,5.00
2022-12-28T00:16:32.461Z,5.00
2022-12-28T00:19:01.898Z,5.00
2022-12-28T00:21:29.087Z,4.90
2022-12-28T00:23:58.344Z,4.90
2022-12-28T00:26:26.827Z,4.90
2022-12-28T00:28:56.893Z,4.90
2022-12-28T00:31:26.838Z,4.90
2022-12-28T00:33:53.606Z,4.90
2022-12-28T00:36:20.207Z,4.90
2022-12-28T00:38:46.788Z,4.90
2022-12-28T00:41:13.392Z,4.90
2022-12-28T00:43:40.129Z,5.00
2022-12-28T00:46:06.850Z,4.90
2022-12-28T00:48:33.531Z,4.80
2022-12-28T00:51:05.833Z,4.80
2022-12-28T00:53:32.556Z,4.70
2022-12-28T00:56:12.018Z,4.80
2022-12-28T00:58:39.144Z,4.80
2022-12-28T01:01:10.912Z,4.80
2022-12-28T01:03:37.548Z,4.90
2022-12-28T01:06:08.652Z,4.90
2022-12-28T01:08:39.155Z,4.80
2022-12-28T01:11:17.347Z,4.70
2022-12-28T01:13:44.396Z,4.80
2022-12-28T01:16:16.503Z,4.80
2022-12-28T01:18:44.173Z,4.80
2022-12-28T01:21:12.530Z,4.80
2022-12-28T01:23:39.382Z,4.90
2022-12-28T01:26:06.201Z,4.90
2022-12-28T01:28:33.138Z,4.90
2022-12-28T01:31:07.640Z,4.90
2022-12-28T01:33:34.339Z,4.90
2022-12-28T01:36:09.509Z,4.90
2022-12-28T01:38:36.542Z,5.00
2022-12-28T01:41:06.223Z,5.00
2022-12-28T01:44:05.083Z,5.00
2022-12-28T01:46:43.938Z,5.10
2022-12-28T01:49:21.274Z,5.10
2022-12-28T01:51:56.505Z,5.10
2022-12-28T01:54:26.193Z,5.10
2022-12-28T01:56:53.559Z,5.10
2022-12-28T01:59:22.606Z,5.10
2022-12-28T02:01:49.448Z,5.10
2022-12-28T02:04:16.410Z,5.10
2022-12-28T02:06:43.346Z,5.10
2022-12-28T02:09:20.780Z,5.10
2022-12-28T02:11:49.592Z,5.10
2022-12-28T02:14:18.049Z,5.00
2022-12-28T02:16:44.778Z,5.00
2022-12-28T02:19:15.955Z,4.90
2022-12-28T02:22:24.509Z,5.00
2022-12-28T02:25:12.861Z,5.00
2022-12-28T02:28:09.503Z,4.90
2022-12-28T02:30:43.340Z,4.90
2022-12-28T02:33:26.384Z,4.90
2022-12-28T02:36:01.351Z,4.90
2022-12-28T02:38:37.120Z,4.90
2022-12-28T02:41:12.602Z,4.80
2022-12-28T02:43:39.598Z,4.70
2022-12-28T02:46:40.013Z,4.70
2022-12-28T02:49:54.833Z,4.60
2022-12-28T02:52:45.457Z,4.60
2022-12-28T02:55:33.543Z,4.50
2022-12-28T02:58:36.796Z,4.50
2022-12-28T03:01:24.666Z,4.50
2022-12-28T03:04:39.733Z,4.50
2022-12-28T03:08:03.303Z,4.40
2022-12-28T03:10:41.805Z,4.50
2022-12-28T03:13:33.644Z,4.50
2022-12-28T03:16:06.330Z,4.40
2022-12-28T03:18:53.954Z,4.40
2022-12-28T03:21:40.673Z,4.40
2022-12-28T03:24:28.402Z,4.40
2022-12-28T03:27:16.444Z,4.40
2022-12-28T03:30:11.601Z,4.40
2022-12-28T03:32:38.329Z,4.40
2022-12-28T03:35:05.347Z,4.40
2022-12-28T03:37:41.473Z,4.40
2022-12-28T03:40:29.315Z,4.50
2022-12-28T03:43:20.743Z,4.50
2022-12-28T03:46:15.125Z,4.50
2022-12-28T03:48:43.406Z,4.50
2022-12-28T03:51:12.239Z,4.50
2022-12-28T03:53:42.347Z,4.50
2022-12-28T03:56:11.231Z,4.60
2022-12-28T03:58:37.998Z,4.60
2022-12-28T04:01:05.448Z,4.60
2022-12-28T04:03:32.550Z,4.50
2022-12-28T04:05:59.353Z,4.50
2022-12-28T04:08:26.448Z,4.50
2022-12-28T04:10:54.032Z,4.50
2022-12-28T04:13:20.944Z,4.50
2022-12-28T04:16:03.045Z,4.50
2022-12-28T04:18:31.308Z,4.50
2022-12-28T04:20:58.453Z,4.50
2022-12-28T04:23:25.665Z,4.50
2022-12-28T04:26:13.890Z,4.40
2022-12-28T04:28:41.513Z,4.40
2022-12-28T04:31:10.722Z,4.30
2022-12-28T04:33:39.935Z,4.20
2022-12-28T04:36:12.550Z,4.20
2022-12-28T04:38:39.595Z,4.10
2022-12-28T04:41:07.819Z,4.10
2022-12-28T04:43:34.500Z,4.10
2022-12-28T04:46:04.358Z,4.10
2022-12-28T04:48:31.876Z,4.20
2022-12-28T04:50:58.808Z,4.20
2022-12-28T04:53:25.439Z,4.20
2022-12-28T04:55:52.079Z,4.20
2022-12-28T04:58:18.734Z,4.20
2022-12-28T05:00:45.397Z,4.20
2022-12-28T05:03:12.000Z,4.20
2022-12-28T05:05:39.404Z,4.20
2022-12-28T05:08:06.043Z,4.20
2022-12-28T05:10:32.651Z,4.10
2022-12-28T05:12:59.336Z,4.20
2022-12-28T05:15:26.023Z,4.20
2022-12-28T05:17:54.148Z,4.20
2022-12-28T05:20:20.821Z,4.10
2022-12-28T05:22:47.410Z,4.10
2022-12-28T05:25:14.094Z,4.00
2022-12-28T05:27:40.717Z,4.00
2022-12-28T05:30:08.027Z,3.90
2022-12-28T05:32:34.584Z,3.90
2022-12-28T05:35:01.176Z,3.80
2022-12-28T05:37:27.797Z,3.80
2022-12-28T05:39:54.496Z,3.80
2022-12-28T05:42:21.066Z,3.90
2022-12-28T05:44:47.617Z,3.90
2022-12-28T05:47:14.264Z,3.90
2022-12-28T05:49:40.861Z,3.90
2022-12-28T05:52:07.411Z,3.90
2022-12-28T05:54:33.999Z,3.80
2022-12-28T05:57:00.553Z,3.80
2022-12-28T05:59:27.219Z,3.70
2022-12-28T06:01:54.056Z,3.70
2022-12-28T06:04:21.401Z,3.70
2022-12-28T06:06:48.652Z,3.70
2022-12-28T06:09:15.747Z,3.60
2022-12-28T06:11:42.738Z,3.60
2022-12-28T06:14:09.465Z,3.60
2022-12-28T06:16:39.049Z,3.60
2022-12-28T06:19:11.836Z,3.50
2022-12-28T06:21:40.266Z,3.50
2022-12-28T06:24:08.590Z,3.50
2022-12-28T06:26:37.513Z,3.50
2022-12-28T06:29:04.872Z,3.50
2022-12-28T06:31:34.521Z,3.50
2022-12-28T06:34:02.894Z,3.50
2022-12-28T06:36:32.247Z,3.60
2022-12-28T06:39:00.068Z,3.60
2022-12-28T06:41:27.647Z,3.60
2022-12-28T06:43:55.398Z,3.60
2022-12-28T06:46:23.896Z,3.60
2022-12-28T06:48:51.054Z,3.60
2022-12-28T06:51:22.706Z,3.60
2022-12-28T06:53:50.908Z,3.60
2022-12-28T06:56:20.616Z,3.60
2022-12-28T06:58:49.164Z,3.50
2022-12-28T07:01:18.358Z,3.40
2022-12-28T07:03:46.389Z,3.40
2022-12-28T07:06:14.059Z,3.40
2022-12-28T07:08:40.666Z,3.40
2022-12-28T07:11:10.816Z,3.30
2022-12-28T07:13:37.741Z,3.40
2022-12-28T07:16:11.245Z,3.30
2022-12-28T07:18:38.256Z,3.40
2022-12-28T07:21:07.763Z,3.40
2022-12-28T07:23:35.272Z,3.40
2022-12-28T07:26:10.708Z,3.40
2022-12-28T07:28:41.944Z,3.40
2022-12-28T07:31:20.248Z,3.40
2022-12-28T07:33:47.886Z,3.30
2022-12-28T07:36:16.888Z,3.30
2022-12-28T07:38:44.382Z,3.30
2022-12-28T07:41:14.292Z,3.30
2022-12-28T07:43:41.202Z,3.30
2022-12-28T07:46:13.269Z,3.30
2022-12-28T07:48:41.075Z,3.30
2022-12-28T07:51:10.608Z,3.30
2022-12-28T07:53:38.699Z,3.30
2022-12-28T07:56:05.865Z,3.40
2022-12-28T07:58:33.182Z,3.50
2022-12-28T08:01:05.390Z,3.50
2022-12-28T08:03:33.107Z,3.40
2022-12-28T08:06:10.977Z,3.40
2022-12-28T08:08:40.284Z,3.40
2022-12-28T08:11:09.540Z,3.40
2022-12-28T08:13:37.831Z,3.50
2022-12-28T08:16:05.757Z,3.60
2022-12-28T08:18:33.237Z,3.60
2022-12-28T08:21:01.764Z,3.60
2022-12-28T08:23:29.252Z,3.60
2022-12-28T08:25:55.829Z,3.60
2022-12-28T08:28:22.500Z,3.70
2022-12-28T08:30:49.138Z,3.60
2022-12-28T08:33:15.715Z,3.70
2022-12-28T08:35:42.270Z,3.70
2022-12-28T08:38:08.861Z,3.80
2022-12-28T08:40:35.470Z,3.80
2022-12-28T08:43:02.394Z,3.90
2022-12-28T08:45:29.092Z,4.00
2022-12-28T08:47:56.012Z,4.10
2022-12-28T08:50:26.582Z,4.20
2022-12-28T08:52:56.360Z,4.20
2022-12-28T08:55:23.025Z,4.30
2022-12-28T08:57:49.606Z,4.30
2022-12-28T09:00:16.440Z,4.40
2022-12-28T09:02:43.152Z,4.40
2022-12-28T09:05:09.959Z,4.40
2022-12-28T09:07:36.530Z,4.40
2022-12-28T09:10:03.444Z,4.50
2022-12-28T09:12:30.053Z,4.50
2022-12-28T09:14:56.697Z,4.50
2022-12-28T09:17:24.730Z,4.50
2022-12-28T09:19:51.336Z,4.60
2022-12-28T09:22:17.933Z,4.60
2022-12-28T09:24:44.521Z,4.70
2022-12-28T09:27:11.115Z,4.70
2022-12-28T09:29:37.669Z,4.80
2022-12-28T09:32:04.328Z,4.80
2022-12-28T09:34:36.085Z,4.80
2022-12-28T09:37:03.903Z,4.80
2022-12-28T09:39:30.630Z,4.90
2022-12-28T09:42:06.282Z,4.90
2022-12-28T09:44:55.875Z,4.90
2022-12-28T09:47:29.692Z,5.00
2022-12-28T09:49:56.218Z,5.00
2022-12-28T09:52:30.994Z,5.10
2022-12-28T09:55:20.622Z,5.60
2022-12-28T09:57:54.072Z,5.50
2022-12-28T10:00:22.424Z,5.50
2022-12-28T10:02:57.433Z,5.50
2022-12-28T10:05:24.431Z,5.50
2022-12-28T10:07:52.877Z,5.50
2022-12-28T10:10:22.041Z,5.60
2022-12-28T10:12:50.076Z,5.60
2022-12-28T10:15:17.338Z,5.70
2022-12-28T10:17:45.391Z,5.70
2022-12-28T10:20:20.900Z,5.70
2022-12-28T10:22:56.785Z,5.70
2022-12-28T10:25:25.695Z,5.70
2022-12-28T10:27:53.498Z,5.80
2022-12-28T10:30:26.897Z,5.80
2022-12-28T10:33:02.194Z,5.90
2022-12-28T10:35:42.978Z,5.90
2022-12-28T10:38:41.627Z,5.90
2022-12-28T10:41:14.936Z,5.90
2022-12-28T10:46:39.866Z,6.00
2022-12-28T10:49:15.875Z,6.00
2022-12-28T10:52:00.697Z,6.10
2022-12-28T10:54:30.692Z,6.10
2022-12-28T10:56:57.450Z,6.00
2022-12-28T10:59:29.060Z,6.10
2022-12-28T11:02:22.073Z,6.10
2022-12-28T11:03:20.690Z,5.90
2022-12-28T11:05:00.008Z,6.10
2022-12-28T11:07:35.946Z,6.10
2022-12-28T11:10:30.615Z,6.00
2022-12-28T11:12:59.190Z,6.00
2022-12-28T11:15:30.068Z,6.00
2022-12-28T11:18:21.587Z,6.00
2022-12-28T11:20:51.093Z,6.00
2022-12-28T11:23:21.476Z,6.00
2022-12-28T11:25:48.751Z,6.00
2022-12-28T11:28:21.267Z,5.90
2022-12-28T11:30:50.624Z,6.00
2022-12-28T11:33:40.552Z,6.00
2022-12-28T11:36:15.585Z,6.00
2022-12-28T11:38:44.368Z,6.10
2022-12-28T11:41:33.403Z,6.10
2022-12-28T11:44:05.312Z,6.10
2022-12-28T11:46:34.882Z,6.10
2022-12-28T11:49:22.887Z,6.20
2022-12-28T11:52:33.996Z,6.20
2022-12-28T11:55:23.477Z,6.30
2022-12-28T11:57:50.561Z,6.30
2022-12-28T12:00:21.784Z,6.30
2022-12-28T12:02:57.193Z,6.40
2022-12-28T12:05:38.820Z,6.40
2022-12-28T12:08:14.512Z,6.90
2022-12-28T12:10:44.592Z,6.80
2022-12-28T12:13:26.733Z,6.80
2022-12-28T12:16:06.900Z,6.80
2022-12-28T12:18:52.139Z,6.80
2022-12-28T12:21:44.416Z,6.80
2022-12-28T12:24:26.872Z,6.70
2022-12-28T12:27:10.270Z,6.80
2022-12-28T12:29:42.310Z,6.80
2022-12-28T12:32:22.246Z,6.80
2022-12-28T12:34:56.755Z,6.90
2022-12-28T12:37:37.371Z,6.90
2022-12-28T12:40:36.418Z,6.90
2022-12-28T12:43:05.946Z,7.00
2022-12-28T12:46:13.425Z,7.00
2022-12-28T12:49:14.822Z,6.90
2022-12-28T12:52:08.397Z,7.00
2022-12-28T12:55:15.726Z,7.00
2022-12-28T12:57:51.588Z,7.10
2022-12-28T13:00:21.177Z,7.10
2022-12-28T13:03:05.699Z,7.10
2022-12-28T13:05:33.053Z,7.20
2022-12-28T13:08:01.616Z,7.20
2022-12-28T13:10:33.698Z,7.20
2022-12-28T13:13:02.333Z,7.30
2022-12-28T13:15:30.174Z,7.30
2022-12-28T13:18:42.882Z,7.30
2022-12-28T13:21:05.996Z,7.40
2022-12-28T13:23:43.983Z,7.30
2022-12-28T13:26:13.094Z,7.40
2022-12-28T13:29:07.913Z,7.40
2022-12-28T13:31:37.738Z,7.40
2022-12-28T13:34:15.074Z,7.50
2022-12-28T13:36:58.016Z,7.50
2022-12-28T13:39:30.011Z,7.50
2022-12-28T13:42:02.461Z,7.60
2022-12-28T13:44:31.956Z,7.60
2022-12-28T13:47:40.319Z,7.70
2022-12-28T13:50:18.868Z,7.70
2022-12-28T13:53:06.436Z,7.80
2022-12-28T13:55:37.288Z,7.80
2022-12-28T13:58:10.530Z,7.90
2022-12-28T14:00:39.216Z,7.80
2022-12-28T14:03:10.158Z,7.90
2022-12-28T14:05:37.186Z,7.90
2022-12-28T14:08:07.646Z,7.90
2022-12-28T14:10:34.576Z,8.00
2022-12-28T14:13:02.320Z,7.90
2022-12-28T14:15:29.256Z,8.00
2022-12-28T14:17:56.640Z,8.00
2022-12-28T14:20:23.487Z,8.00
2022-12-28T14:22:50.067Z,8.00
2022-12-28T14:25:19.783Z,8.10
2022-12-28T14:28:05.944Z,8.10
2022-12-28T14:30:39.921Z,8.10
2022-12-28T14:33:24.068Z,8.10
2022-12-28T14:36:00.050Z,8.10
2022-12-28T14:38:35.624Z,8.10
2022-12-28T14:41:03.288Z,8.20
2022-12-28T14:43:33.447Z,8.20
2022-12-28T14:46:19.029Z,8.20
2022-12-28T14:48:46.023Z,8.10
2022-12-28T14:51:17.668Z,8.20
2022-12-28T14:54:17.682Z,8.20
2022-12-28T14:56:49.297Z,8.20
2022-12-28T14:59:24.325Z,8.20
2022-12-28T15:01:51.646Z,8.20
2022-12-28T15:04:35.865Z,8.20
2022-12-28T15:07:04.098Z,8.20
2022-12-28T15:09:31.576Z,8.20
2022-12-28T15:12:27.668Z,8.10
2022-12-28T15:14:54.281Z,8.10
2022-12-28T15:17:20.863Z,8.10
2022-12-28T15:19:47.441Z,8.10
2022-12-28T15:22:14.230Z,8.00
2022-12-28T15:24:44.952Z,8.00
2022-12-28T15:27:11.651Z,8.00
2022-12-28T15:32:24.929Z,7.90
2022-12-28T15:34:51.571Z,7.90
2022-12-28T15:37:18.154Z,7.90
2022-12-28T15:39:44.845Z,7.90
2022-12-28T15:42:11.484Z,7.80
2022-12-28T15:44:38.083Z,7.70
2022-12-28T15:47:05.014Z,7.70
2022-12-28T15:49:32.282Z,7.70
2022-12-28T15:51:59.682Z,7.70
2022-12-28T15:54:26.244Z,7.70
2022-12-28T15:56:54.275Z,7.70
2022-12-28T15:59:21.277Z,7.60
2022-12-28T16:01:48.235Z,7.60
2022-12-28T16:04:15.525Z,7.50
2022-12-28T16:06:44.934Z,7.50
2022-12-28T16:09:13.087Z,7.50
2022-12-28T16:11:40.919Z,7.40
2022-12-28T16:14:12.846Z,7.40
2022-12-28T16:16:40.184Z,7.40
2022-12-28T16:19:08.905Z,7.40
2022-12-28T16:21:36.083Z,7.30
2022-12-28T16:24:02.819Z,7.30
2022-12-28T16:26:29.434Z,7.30
2022-12-28T16:28:57.537Z,7.20
2022-12-28T16:31:26.761Z,7.10
2022-12-28T16:33:55.020Z,7.00
2022-12-28T16:36:21.967Z,7.00
2022-12-28T16:38:48.916Z,6.90
2022-12-28T16:41:15.711Z,6.90
2022-12-28T16:43:42.379Z,6.80
2022-12-28T16:46:09.722Z,6.70
2022-12-28T16:48:37.915Z,6.70
2022-12-28T16:51:04.782Z,6.60
2022-12-28T16:53:33.335Z,6.60
2022-12-28T16:56:01.395Z,6.70
2022-12-28T16:58:29.645Z,6.70
2022-12-28T17:00:57.146Z,6.70
2022-12-28T17:03:24.636Z,6.70
2022-12-28T17:05:52.556Z,6.70
2022-12-28T17:08:19.776Z,6.70
2022-12-28T17:10:46.428Z,6.70
2022-12-28T17:13:13.031Z,6.70
2022-12-28T17:15:40.454Z,6.70
2022-12-28T17:18:07.657Z,6.70
2022-12-28T17:20:38.035Z,6.70
2022-12-28T17:23:05.281Z,6.60
2022-12-28T17:25:33.140Z,6.50
2022-12-28T17:28:00.864Z,6.50
2022-12-28T17:30:28.481Z,6.50
2022-12-28T17:32:55.507Z,6.50
2022-12-28T17:35:22.652Z,6.50
2022-12-28T17:37:49.274Z,6.50
2022-12-28T17:40:16.004Z,6.50
2022-12-28T17:42:42.845Z,6.50
2022-12-28T17:45:12.043Z,6.40
2022-12-28T17:47:39.849Z,6.30
2022-12-28T17:50:07.351Z,6.30
2022-12-28T17:52:34.023Z,6.20
2022-12-28T17:55:00.650Z,6.20
2022-12-28T17:57:27.500Z,6.20
2022-12-28T17:59:54.104Z,6.20
2022-12-28T18:02:21.083Z,6.20
2022-12-28T18:04:48.160Z,6.30
2022-12-28T18:07:15.360Z,6.30
2022-12-28T18:09:42.372Z,6.30
2022-12-28T18:12:09.068Z,6.40
2022-12-28T18:14:36.241Z,6.40
2022-12-28T18:17:03.977Z,6.40
2022-12-28T18:19:30.830Z,6.50
2022-12-28T18:21:57.896Z,6.50
2022-12-28T18:24:25.489Z,6.40
2022-12-28T18:26:52.203Z,6.30
2022-12-28T18:29:18.894Z,6.30
2022-12-28T18:31:45.736Z,6.40
2022-12-28T18:34:12.383Z,6.30
2022-12-28T18:36:38.959Z,6.20
2022-12-28T18:39:05.579Z,6.10
2022-12-28T18:41:34.468Z,6.00
2022-12-28T18:44:02.699Z,5.90
2022-12-28T18:46:29.816Z,6.00
2022-12-28T18:48:56.684Z,6.00
2022-12-28T18:51:23.583Z,6.00
2022-12-28T18:53:50.883Z,5.90
2022-12-28T18:56:20.056Z,5.90
2022-12-28T18:58:52.336Z,5.90
2022-12-28T19:04:11.678Z,5.80
2022-12-28T19:06:38.634Z,5.70
2022-12-28T19:09:06.699Z,5.70
2022-12-28T19:11:34.025Z,5.60
2022-12-28T19:14:02.809Z,5.50
2022-12-28T19:16:31.899Z,5.50
2022-12-28T19:18:59.899Z,5.60
2022-12-28T19:21:30.957Z,5.50
2022-12-28T19:24:03.507Z,5.50
2022-12-28T19:26:31.685Z,5.40
2022-12-28T19:28:59.330Z,5.30
2022-12-28T19:31:26.919Z,5.20
2022-12-28T19:33:53.905Z,5.20
2022-12-28T19:36:20.594Z,5.20
2022-12-28T19:38:48.156Z,5.20
2022-12-28T19:41:16.309Z,5.20
2022-12-28T19:43:43.915Z,5.30
2022-12-28T19:46:31.266Z,5.30
2022-12-28T19:49:00.395Z,5.30
2022-12-28T19:51:31.254Z,5.30
2022-12-28T19:53:59.297Z,5.30
2022-12-28T19:56:25.912Z,5.30
2022-12-28T19:58:53.797Z,5.30
2022-12-28T20:01:25.932Z,5.30
2022-12-28T20:03:54.243Z,5.30
2022-12-28T20:06:25.235Z,5.30
2022-12-28T20:08:53.668Z,5.30
2022-12-28T20:11:21.740Z,5.20
2022-12-28T20:13:53.286Z,5.20
2022-12-28T20:16:21.185Z,5.30
2022-12-28T20:18:52.413Z,5.20
2022-12-28T20:21:21.108Z,5.20
2022-12-28T20:23:49.363Z,5.20
2022-12-28T20:26:17.084Z,5.10
2022-12-28T20:28:43.930Z,5.10
2022-12-28T20:31:13.625Z,5.10
2022-12-28T20:33:40.934Z,5.10
2022-12-28T20:36:11.198Z,5.10
2022-12-28T20:38:38.253Z,5.10
2022-12-28T20:41:07.729Z,5.00
2022-12-28T20:43:35.436Z,5.00
2022-12-28T20:46:02.572Z,4.90
2022-12-28T20:48:29.420Z,4.90
2022-12-28T20:51:00.672Z,4.80
2022-12-28T20:53:28.412Z,4.70
2022-12-28T20:56:04.867Z,4.70
2022-12-28T20:58:31.455Z,4.60
2022-12-28T21:01:06.610Z,4.50
2022-12-28T21:03:33.680Z,4.50
2022-12-28T21:06:01.226Z,4.50
2022-12-28T21:08:30.884Z,4.50
2022-12-28T21:10:58.342Z,4.40
2022-12-28T21:13:25.072Z,4.40
2022-12-28T21:15:52.367Z,4.30
2022-12-28T21:18:19.929Z,4.30
2022-12-28T21:20:47.739Z,4.30
2022-12-28T21:23:15.274Z,4.20
2022-12-28T21:25:41.865Z,4.20
2022-12-28T21:28:09.454Z,4.20
2022-12-28T21:30:36.094Z,4.10
2022-12-28T21:33:02.705Z,4.00
2022-12-28T21:35:34.047Z,4.00
2022-12-28T21:38:01.525Z,4.00
2022-12-28T21:40:28.157Z,4.00
2022-12-28T21:42:54.727Z,4.00
2022-12-28T21:45:21.469Z,3.90
2022-12-28T21:47:48.115Z,3.90
2022-12-28T21:50:14.741Z,3.90
2022-12-28T21:52:41.381Z,3.90
2022-12-28T21:55:26.831Z,3.90
2022-12-28T21:57:54.145Z,3.90
2022-12-28T22:00:40.255Z,3.90
2022-12-28T22:03:25.875Z,3.90
2022-12-28T22:06:04.496Z,3.90
2022-12-28T22:08:50.466Z,3.90
2022-12-28T22:11:36.351Z,3.90
2022-12-28T22:14:03.444Z,4.00
2022-12-28T22:16:35.076Z,3.90
2022-12-28T22:19:03.528Z,4.00
2022-12-28T22:21:30.876Z,3.90
2022-12-28T22:23:57.725Z,3.80
2022-12-28T22:26:24.330Z,3.80
2022-12-28T22:28:50.912Z,3.80
2022-12-28T22:31:17.765Z,3.80
2022-12-28T22:33:44.947Z,3.70
2022-12-28T22:36:15.100Z,3.70
2022-12-28T22:38:41.820Z,3.70
2022-12-28T22:41:08.787Z,3.70
2022-12-28T22:43:35.585Z,3.70
2022-12-28T22:46:02.939Z,3.70
2022-12-28T22:48:29.932Z,3.60
2022-12-28T22:51:04.792Z,3.60
2022-12-28T22:53:32.529Z,3.60
2022-12-28T22:56:01.219Z,3.60
2022-12-28T22:58:28.132Z,3.70
2022-12-28T23:01:12.956Z,3.70
2022-12-28T23:03:41.343Z,3.70
2022-12-28T23:06:10.331Z,3.60
2022-12-28T23:08:37.146Z,3.50
2022-12-28T23:11:26.939Z,3.50
2022-12-28T23:13:53.501Z,3.50
2022-12-28T23:16:20.098Z,3.50
2022-12-28T23:19:05.224Z,3.40
2022-12-28T23:21:50.481Z,3.40
2022-12-28T23:24:35.628Z,3.50
2022-12-28T23:27:20.599Z,3.50
2022-12-28T23:29:47.189Z,3.50
2022-12-28T23:32:13.947Z,3.50
2022-12-28T23:34:40.559Z,3.50
2022-12-28T23:37:07.130Z,3.60
2022-12-28T23:39:33.778Z,3.60
2022-12-28T23:42:00.433Z,3.70
2022-12-28T23:44:27.227Z,3.60
2022-12-28T23:46:58.893Z,3.60
2022-12-28T23:49:26.261Z,3.60
2022-12-28T23:51:52.958Z,3.70
2022-12-28T23:54:20.427Z,3.70
2022-12-28T23:56:48.828Z,3.70
2022-12-28T23:59:15.714Z,3.80
